createdAt,value
2019-06-01T00:02:08.027Z,100752.62
2019-06-01T00:04:42.898Z,100749.00
2019-06-01T00:07:16.251Z,100749.00
2019-06-01T00:09:49.766Z,100744.78
2019-06-01T00:12:23.250Z,100740.20
2019-06-01T00:14:56.650Z,100742.59
2019-06-01T00:17:29.863Z,100739.61
2019-06-01T00:20:04.522Z,100734.57
2019-06-01T00:22:37.751Z,100735.55
2019-06-01T00:25:11.165Z,100732.98
2019-06-01T00:27:44.676Z,100725.16
2019-06-01T00:30:26.609Z,100723.56
2019-06-01T00:32:53.201Z,100722.39
2019-06-01T00:35:26.496Z,100729.26
2019-06-01T00:37:59.792Z,100723.58
2019-06-01T00:40:32.971Z,100726.25
2019-06-01T00:43:06.385Z,100717.59
2019-06-01T00:45:39.763Z,100720.23
2019-06-01T00:48:12.870Z,100720.23
2019-06-01T00:50:46.830Z,100721.62
2019-06-01T00:53:20.065Z,100722.23
2019-06-01T00:55:53.685Z,100727.27
2019-06-01T00:58:27.086Z,100713.80
2019-06-01T01:01:00.363Z,100718.20
2019-06-01T01:03:33.777Z,100715.81
2019-06-01T01:06:07.054Z,100731.94
2019-06-01T01:08:40.574Z,100737.02
2019-06-01T01:11:13.848Z,100735.41
2019-06-01T01:13:49.231Z,100743.62
2019-06-01T01:16:22.607Z,100744.65
2019-06-01T01:18:56.032Z,100741.01
2019-06-01T01:21:30.430Z,100738.00
2019-06-01T01:24:03.723Z,100729.34
2019-06-01T01:26:37.125Z,100727.91
2019-06-01T01:29:10.504Z,100733.95
2019-06-01T01:31:43.919Z,100737.56
2019-06-01T01:34:17.098Z,100732.36
2019-06-01T01:36:52.754Z,100731.36
2019-06-01T01:39:26.654Z,100726.31
2019-06-01T01:42:00.072Z,100726.33
2019-06-01T01:44:33.657Z,100729.14
2019-06-01T01:47:06.969Z,100738.58
2019-06-01T01:49:40.163Z,100734.75
2019-06-01T01:52:14.584Z,100729.32
2019-06-01T01:54:47.869Z,100735.16
2019-06-01T01:57:22.200Z,100736.77
2019-06-01T01:59:55.415Z,100741.20
2019-06-01T02:02:28.780Z,100750.62
2019-06-01T02:05:02.243Z,100748.83
2019-06-01T02:07:36.306Z,100755.27
2019-06-01T02:10:09.768Z,100742.41
2019-06-01T02:12:42.894Z,100738.97
2019-06-01T02:15:16.295Z,100743.22
2019-06-01T02:17:49.487Z,100749.25
2019-06-01T02:20:22.764Z,100747.21
2019-06-01T02:22:56.760Z,100752.64
2019-06-01T02:25:31.627Z,100745.80
2019-06-01T02:28:04.823Z,100746.22
2019-06-01T02:30:38.100Z,100744.80
2019-06-01T02:33:11.528Z,100743.18
2019-06-01T02:35:44.693Z,100741.75
2019-06-01T02:38:18.110Z,100743.78
2019-06-01T02:40:51.492Z,100731.90
2019-06-01T02:43:24.784Z,100735.69
2019-06-01T02:45:58.204Z,100739.30
2019-06-01T02:48:31.602Z,100738.69
2019-06-01T02:51:05.490Z,100745.31
2019-06-01T02:53:38.803Z,100736.84
2019-06-01T02:56:12.202Z,100738.84
2019-06-01T02:58:45.603Z,100728.92
2019-06-01T03:01:27.884Z,100727.50
2019-06-01T03:04:01.524Z,100721.44
2019-06-01T03:06:34.801Z,100731.05
2019-06-01T03:09:09.072Z,100726.22
2019-06-01T03:11:42.507Z,100724.76
2019-06-01T03:14:15.713Z,100731.95
2019-06-01T03:16:48.896Z,100732.13
2019-06-01T03:19:24.275Z,100721.41
2019-06-01T03:21:59.645Z,100728.20
2019-06-01T03:24:35.649Z,100727.56
2019-06-01T03:27:09.047Z,100728.33
2019-06-01T03:29:42.548Z,100730.28
2019-06-01T03:32:34.267Z,100732.82
2019-06-01T03:34:49.981Z,100726.45
2019-06-01T03:37:22.844Z,100734.68
2019-06-01T03:39:56.247Z,100735.60
2019-06-01T03:42:29.540Z,100737.12
2019-06-01T03:45:03.491Z,100738.05
2019-06-01T03:47:36.728Z,100732.91
2019-06-01T03:50:10.044Z,100736.02
2019-06-01T03:52:43.629Z,100733.90
2019-06-01T03:55:16.737Z,100735.36
2019-06-01T03:57:50.034Z,100730.39
2019-06-01T04:00:24.350Z,100739.72
2019-06-01T04:02:57.748Z,100741.20
2019-06-01T04:05:32.258Z,100740.61
2019-06-01T04:08:05.688Z,100742.73
2019-06-01T04:10:40.197Z,100746.73
2019-06-01T04:13:13.390Z,100753.18
2019-06-01T04:15:46.787Z,100748.91
2019-06-01T04:18:20.084Z,100747.81
2019-06-01T04:20:53.491Z,100762.72
2019-06-01T04:23:26.763Z,100759.41
2019-06-01T04:26:00.089Z,100771.65
2019-06-01T04:28:33.481Z,100775.21
2019-06-01T04:31:06.872Z,100783.25
2019-06-01T04:33:40.359Z,100778.75
2019-06-01T04:36:13.564Z,100773.03
2019-06-01T04:38:46.740Z,100777.34
2019-06-01T04:41:20.054Z,100770.64
2019-06-01T04:43:53.229Z,100776.63
2019-06-01T04:46:26.426Z,100777.41
2019-06-01T04:48:59.737Z,100784.24
2019-06-01T04:51:32.813Z,100789.73
2019-06-01T04:54:06.864Z,100788.36
2019-06-01T04:56:40.021Z,100788.11
2019-06-01T04:59:13.107Z,100785.52
2019-06-01T05:01:46.404Z,100783.84
2019-06-01T05:04:19.615Z,100779.86
2019-06-01T05:06:52.809Z,100780.56
2019-06-01T05:09:26.206Z,100781.20
2019-06-01T05:11:59.381Z,100782.63
2019-06-01T05:14:32.705Z,100783.33
2019-06-01T05:17:06.003Z,100781.36
2019-06-01T05:19:39.296Z,100780.56
2019-06-01T05:22:12.686Z,100778.42
2019-06-01T05:24:45.776Z,100782.50
2019-06-01T05:27:19.178Z,100776.44
2019-06-01T05:29:52.554Z,100769.73
2019-06-01T05:32:25.975Z,100768.56
2019-06-01T05:34:59.373Z,100776.70
2019-06-01T05:37:32.565Z,100772.02
2019-06-01T05:40:12.360Z,100772.02
2019-06-01T05:42:45.501Z,100771.33
2019-06-01T05:45:19.275Z,100776.68
2019-06-01T05:47:52.501Z,100773.30
2019-06-01T05:50:25.784Z,100774.79
2019-06-01T05:52:59.198Z,100777.25
2019-06-01T05:55:32.392Z,100769.84
2019-06-01T05:58:05.581Z,100770.48
2019-06-01T06:00:42.872Z,100781.25
2019-06-01T06:03:20.793Z,100770.95
2019-06-01T06:05:51.099Z,100770.69
2019-06-01T06:08:24.396Z,100770.16
2019-06-01T06:10:57.693Z,100773.28
2019-06-01T06:13:30.770Z,100773.23
2019-06-01T06:16:04.181Z,100769.94
2019-06-01T06:18:37.403Z,100770.38
2019-06-01T06:21:12.344Z,100771.56
2019-06-01T06:23:45.294Z,100773.69
2019-06-01T06:26:19.154Z,100774.91
2019-06-01T06:28:53.219Z,100775.14
2019-06-01T06:31:26.207Z,100778.27
2019-06-01T06:33:59.609Z,100780.87
2019-06-01T06:36:32.573Z,100792.42
2019-06-01T06:39:07.740Z,100788.63
2019-06-01T06:41:40.549Z,100786.50
2019-06-01T06:44:14.395Z,100784.16
2019-06-01T06:46:47.518Z,100790.52
2019-06-01T06:49:21.413Z,100789.58
2019-06-01T06:51:54.500Z,100793.45
2019-06-01T06:54:27.716Z,100790.91
2019-06-01T06:57:00.702Z,100795.89
2019-06-01T06:59:33.894Z,100789.42
2019-06-01T07:02:07.004Z,100787.05
2019-06-01T07:04:40.194Z,100795.65
2019-06-01T07:07:13.363Z,100794.69
2019-06-01T07:09:46.549Z,100789.48
2019-06-01T07:12:19.657Z,100790.80
2019-06-01T07:14:52.852Z,100787.47
2019-06-01T07:17:25.840Z,100793.03
2019-06-01T07:19:59.035Z,100794.75
2019-06-01T07:22:32.190Z,100796.67
2019-06-01T07:25:07.264Z,100794.61
2019-06-01T07:27:39.468Z,100794.44
2019-06-01T07:30:12.526Z,100798.91
2019-06-01T07:32:45.511Z,100798.56
2019-06-01T07:35:18.587Z,100805.70
2019-06-01T07:37:51.799Z,100802.98
2019-06-01T07:40:24.959Z,100802.44
2019-06-01T07:42:59.003Z,100803.39
2019-06-01T07:45:35.215Z,100803.71
2019-06-01T07:48:07.455Z,100808.47
2019-06-01T07:50:40.413Z,100816.27
2019-06-01T07:53:13.403Z,100808.80
2019-06-01T07:55:46.596Z,100808.01
2019-06-01T07:58:20.825Z,100804.02
2019-06-01T08:00:53.923Z,100806.87
2019-06-01T08:03:29.476Z,100804.81
2019-06-01T08:06:01.038Z,100801.75
2019-06-01T08:08:33.806Z,100798.02
2019-06-01T08:11:06.898Z,100808.12
2019-06-01T08:13:40.197Z,100809.34
2019-06-01T08:16:13.286Z,100808.12
2019-06-01T08:18:46.262Z,100799.47
2019-06-01T08:21:19.453Z,100808.53
2019-06-01T08:23:52.561Z,100798.11
2019-06-01T08:26:26.464Z,100799.22
2019-06-01T08:28:59.561Z,100804.10
2019-06-01T08:31:33.691Z,100809.58
2019-06-01T08:34:06.865Z,100800.78
2019-06-01T08:36:39.861Z,100797.78
2019-06-01T08:39:13.932Z,100790.86
2019-06-01T08:41:46.909Z,100793.95
2019-06-01T08:44:20.064Z,100791.84
2019-06-01T08:46:53.255Z,100789.58
2019-06-01T08:49:27.890Z,100787.14
2019-06-01T08:52:00.964Z,100786.41
2019-06-01T08:54:34.400Z,100785.68
2019-06-01T08:57:07.534Z,100783.30
2019-06-01T08:59:40.647Z,100782.34
2019-06-01T09:02:13.839Z,100790.58
2019-06-01T09:04:47.149Z,100785.96
2019-06-01T09:07:20.004Z,100796.02
2019-06-01T09:09:54.227Z,100793.71
2019-06-01T09:12:27.343Z,100791.66
2019-06-01T09:15:00.303Z,100787.25
2019-06-01T09:17:33.541Z,100790.68
2019-06-01T09:20:06.811Z,100786.61
2019-06-01T09:22:39.681Z,100787.43
2019-06-01T09:25:12.874Z,100786.55
2019-06-01T09:27:45.960Z,100781.61
2019-06-01T09:30:19.070Z,100781.61
2019-06-01T09:32:52.063Z,100783.33
2019-06-01T09:35:44.772Z,100772.63
2019-06-01T09:37:59.981Z,100773.91
2019-06-01T09:40:33.568Z,100779.60
2019-06-01T09:43:07.680Z,100775.83
2019-06-01T09:45:40.686Z,100771.65
2019-06-01T09:48:13.766Z,100771.74
2019-06-01T09:50:47.080Z,100770.40
2019-06-01T09:53:20.152Z,100773.82
2019-06-01T09:55:53.139Z,100766.33
2019-06-01T09:58:26.334Z,100760.92
2019-06-01T10:00:59.340Z,100762.08
2019-06-01T10:03:32.623Z,100759.17
2019-06-01T10:06:05.727Z,100753.09
2019-06-01T10:08:38.613Z,100745.66
2019-06-01T10:11:11.704Z,100748.27
2019-06-01T10:13:44.675Z,100754.23
2019-06-01T10:16:18.909Z,100743.73
2019-06-01T10:18:49.632Z,100743.55
2019-06-01T10:21:39.215Z,100754.69
2019-06-01T10:24:12.407Z,100748.64
2019-06-01T10:26:45.706Z,100755.31
2019-06-01T10:29:18.790Z,100750.62
2019-06-01T10:31:52.997Z,100750.45
2019-06-01T10:34:26.310Z,100738.52
2019-06-01T10:36:59.483Z,100741.02
2019-06-01T10:39:33.043Z,100739.01
2019-06-01T10:42:06.197Z,100738.14
2019-06-01T10:44:44.072Z,100735.41
2019-06-01T10:47:14.222Z,100726.83
2019-06-01T10:49:47.313Z,100724.52
2019-06-01T10:52:20.588Z,100728.67
2019-06-01T10:54:53.908Z,100725.88
2019-06-01T10:57:26.975Z,100730.16
2019-06-01T11:00:00.278Z,100725.06
2019-06-01T11:02:34.768Z,100719.47
2019-06-01T11:05:08.193Z,100727.28
2019-06-01T11:07:41.247Z,100723.27
2019-06-01T11:10:15.315Z,100720.34
2019-06-01T11:12:48.592Z,100723.20
2019-06-01T11:15:22.213Z,100719.86
2019-06-01T11:17:55.307Z,100710.50
2019-06-01T11:20:28.583Z,100707.22
2019-06-01T11:23:01.811Z,100703.58
2019-06-01T11:25:35.636Z,100711.52
2019-06-01T11:28:08.798Z,100705.82
2019-06-01T11:30:53.733Z,100706.57
2019-06-01T11:33:26.853Z,100706.60
2019-06-01T11:36:00.041Z,100717.02
2019-06-01T11:38:34.646Z,100709.75
2019-06-01T11:41:07.864Z,100700.27
2019-06-01T11:43:40.834Z,100700.98
2019-06-01T11:46:13.941Z,100700.70
2019-06-01T11:48:47.239Z,100700.33
2019-06-01T11:51:20.537Z,100696.59
2019-06-01T11:53:53.816Z,100693.52
2019-06-01T11:56:27.126Z,100696.39
2019-06-01T11:59:00.404Z,100694.50
2019-06-01T12:01:33.497Z,100693.22
2019-06-01T12:04:06.705Z,100683.45
2019-06-01T12:06:39.872Z,100688.61
2019-06-01T12:09:12.983Z,100684.00
2019-06-01T12:11:46.403Z,100680.41
2019-06-01T12:14:19.685Z,100674.66
2019-06-01T12:16:52.867Z,100679.12
2019-06-01T12:19:26.075Z,100674.05
2019-06-01T12:21:59.368Z,100675.95
2019-06-01T12:24:32.647Z,100676.17
2019-06-01T12:27:06.063Z,100667.46
2019-06-01T12:29:39.463Z,100672.42
2019-06-01T12:32:12.557Z,100670.83
2019-06-01T12:34:46.290Z,100665.03
2019-06-01T12:37:36.164Z,100668.05
2019-06-01T12:39:54.466Z,100667.08
2019-06-01T12:42:27.786Z,100666.86
2019-06-01T12:45:01.107Z,100663.72
2019-06-01T12:47:34.374Z,100664.44
2019-06-01T12:50:07.974Z,100667.19
2019-06-01T12:52:42.203Z,100664.69
2019-06-01T12:55:15.284Z,100662.75
2019-06-01T12:57:49.316Z,100661.66
2019-06-01T13:00:23.446Z,100656.34
2019-06-01T13:03:07.094Z,100659.95
2019-06-01T13:05:30.534Z,100661.51
2019-06-01T13:08:03.401Z,100652.28
2019-06-01T13:10:36.698Z,100659.56
2019-06-01T13:13:09.891Z,100663.66
2019-06-01T13:15:45.148Z,100663.31
2019-06-01T13:18:18.204Z,100667.84
2019-06-01T13:20:51.699Z,100658.13
2019-06-01T13:23:24.815Z,100667.27
2019-06-01T13:25:58.014Z,100656.20
2019-06-01T13:28:38.067Z,100663.66
2019-06-01T13:31:05.829Z,100660.37
2019-06-01T13:33:39.209Z,100662.23
2019-06-01T13:36:12.336Z,100669.58
2019-06-01T13:38:46.631Z,100665.41
2019-06-01T13:41:19.609Z,100669.16
2019-06-01T13:43:53.451Z,100665.48
2019-06-01T13:46:26.738Z,100665.70
2019-06-01T13:49:00.009Z,100664.66
2019-06-01T13:51:33.717Z,100658.70
2019-06-01T13:54:07.749Z,100655.28
2019-06-01T13:56:40.717Z,100657.61
2019-06-01T13:59:14.035Z,100647.61
2019-06-01T14:01:48.683Z,100644.73
2019-06-01T14:04:21.362Z,100635.41
2019-06-01T14:06:55.487Z,100636.27
2019-06-01T14:09:28.688Z,100638.28
2019-06-01T14:12:01.747Z,100633.82
2019-06-01T14:14:35.031Z,100632.72
2019-06-01T14:17:08.329Z,100629.36
2019-06-01T14:19:41.524Z,100624.10
2019-06-01T14:22:14.820Z,100623.34
2019-06-01T14:25:06.437Z,100616.58
2019-06-01T14:27:21.963Z,100613.86
2019-06-01T14:29:54.912Z,100615.02
2019-06-01T14:32:28.001Z,100610.56
2019-06-01T14:35:01.336Z,100614.30
2019-06-01T14:37:34.491Z,100609.46
2019-06-01T14:40:07.877Z,100612.21
2019-06-01T14:42:40.732Z,100604.51
2019-06-01T14:45:13.856Z,100609.98
2019-06-01T14:47:49.453Z,100607.75
2019-06-01T14:50:22.508Z,100609.98
2019-06-01T14:52:55.753Z,100608.88
2019-06-01T14:55:28.878Z,100615.42
2019-06-01T14:58:02.195Z,100612.27
2019-06-01T15:00:35.485Z,100615.88
2019-06-01T15:03:08.684Z,100612.06
2019-06-01T15:05:41.974Z,100606.80
2019-06-01T15:08:14.945Z,100613.59
2019-06-01T15:10:48.746Z,100603.37
2019-06-01T15:13:21.742Z,100607.27
2019-06-01T15:15:55.587Z,100603.72
2019-06-01T15:18:28.658Z,100606.25
2019-06-01T15:21:02.203Z,100605.37
2019-06-01T15:23:35.251Z,100599.77
2019-06-01T15:26:08.549Z,100601.58
2019-06-01T15:28:41.639Z,100598.92
2019-06-01T15:31:14.934Z,100599.06
2019-06-01T15:33:48.026Z,100594.97
2019-06-01T15:36:21.324Z,100593.02
2019-06-01T15:38:55.556Z,100596.37
2019-06-01T15:41:28.712Z,100591.58
2019-06-01T15:44:01.825Z,100588.63
2019-06-01T15:46:35.018Z,100581.12
2019-06-01T15:49:09.218Z,100578.86
2019-06-01T15:51:42.535Z,100577.69
2019-06-01T15:54:15.988Z,100580.44
2019-06-01T15:56:49.149Z,100579.10
2019-06-01T15:59:22.520Z,100579.65
2019-06-01T16:01:57.354Z,100579.55
2019-06-01T16:04:30.545Z,100582.11
2019-06-01T16:07:03.613Z,100582.07
2019-06-01T16:09:42.470Z,100583.54
2019-06-01T16:12:11.539Z,100583.64
2019-06-01T16:14:44.854Z,100577.50
2019-06-01T16:17:18.161Z,100583.35
2019-06-01T16:19:51.343Z,100592.16
2019-06-01T16:22:24.640Z,100589.50
2019-06-01T16:24:58.136Z,100584.45
2019-06-01T16:27:31.423Z,100581.52
2019-06-01T16:30:06.854Z,100583.62
2019-06-01T16:32:40.052Z,100587.48
2019-06-01T16:35:13.282Z,100586.05
2019-06-01T16:37:46.243Z,100587.82
2019-06-01T16:40:19.552Z,100583.38
2019-06-01T16:42:52.642Z,100585.63
2019-06-01T16:45:25.820Z,100583.58
2019-06-01T16:47:59.493Z,100586.57
2019-06-01T16:50:32.618Z,100582.28
2019-06-01T16:53:06.361Z,100573.25
2019-06-01T16:55:39.533Z,100573.25
2019-06-01T16:58:12.728Z,100573.39
2019-06-01T17:00:45.805Z,100581.00
2019-06-01T17:03:19.100Z,100577.50
2019-06-01T17:05:52.419Z,100571.95
2019-06-01T17:08:25.603Z,100575.78
2019-06-01T17:10:58.779Z,100568.77
2019-06-01T17:13:33.097Z,100572.42
2019-06-01T17:16:07.185Z,100572.75
2019-06-01T17:18:40.425Z,100573.84
2019-06-01T17:21:13.821Z,100570.52
2019-06-01T17:23:48.433Z,100575.27
2019-06-01T17:26:21.537Z,100566.55
2019-06-01T17:28:55.962Z,100565.26
2019-06-01T17:31:29.466Z,100572.39
2019-06-01T17:34:02.875Z,100573.67
2019-06-01T17:36:36.057Z,100576.03
2019-06-01T17:39:09.453Z,100583.28
2019-06-01T17:41:42.849Z,100571.06
2019-06-01T17:44:15.943Z,100574.23
2019-06-01T17:46:53.429Z,100576.13
2019-06-01T17:49:23.171Z,100583.59
2019-06-01T17:51:56.239Z,100590.70
2019-06-01T17:54:29.436Z,100593.06
2019-06-01T17:57:05.019Z,100595.28
2019-06-01T17:59:38.077Z,100603.05
2019-06-01T18:02:11.922Z,100608.28
2019-06-01T18:04:45.068Z,100599.89
2019-06-01T18:07:18.168Z,100609.87
2019-06-01T18:09:51.344Z,100622.08
2019-06-01T18:12:24.653Z,100615.40
2019-06-01T18:14:57.848Z,100620.31
2019-06-01T18:17:31.246Z,100620.94
2019-06-01T18:20:08.708Z,100621.39
2019-06-01T18:22:41.930Z,100623.60
2019-06-01T18:25:20.379Z,100627.23
2019-06-01T18:27:53.333Z,100637.05
2019-06-01T18:30:26.524Z,100636.57
2019-06-01T18:33:01.052Z,100639.25
2019-06-01T18:35:35.453Z,100642.42
2019-06-01T18:38:09.833Z,100640.52
2019-06-01T18:40:42.868Z,100642.58
2019-06-01T18:43:17.258Z,100636.21
2019-06-01T18:45:50.173Z,100643.48
2019-06-01T18:48:23.589Z,100646.03
2019-06-01T18:50:56.681Z,100648.08
2019-06-01T18:53:30.987Z,100644.89
2019-06-01T18:56:04.219Z,100658.06
2019-06-01T18:58:37.474Z,100662.63
2019-06-01T19:01:10.821Z,100666.28
2019-06-01T19:03:44.986Z,100672.62
2019-06-01T19:06:18.186Z,100667.68
2019-06-01T19:08:51.596Z,100674.53
2019-06-01T19:11:35.478Z,100681.32
2019-06-01T19:13:59.615Z,100684.66
2019-06-01T19:16:32.846Z,100678.23
2019-06-01T19:19:06.349Z,100689.16
2019-06-01T19:21:39.401Z,100692.60
2019-06-01T19:24:12.730Z,100697.37
2019-06-01T19:26:46.100Z,100693.20
2019-06-01T19:29:19.501Z,100699.04
2019-06-01T19:31:52.876Z,100699.94
2019-06-01T19:34:26.171Z,100717.47
2019-06-01T19:36:59.987Z,100729.89
2019-06-01T19:39:33.074Z,100739.88
2019-06-01T19:42:07.186Z,100755.69
2019-06-01T19:44:40.400Z,100756.22
2019-06-01T19:47:13.912Z,100765.36
2019-06-01T19:49:48.214Z,100771.03
2019-06-01T19:52:21.407Z,100782.52
2019-06-01T19:54:54.790Z,100801.09
2019-06-01T19:57:28.092Z,100812.02
2019-06-01T20:00:04.449Z,100842.36
2019-06-01T20:02:35.641Z,100854.48
2019-06-01T20:05:08.587Z,100845.31
2019-06-01T20:07:41.901Z,100846.61
2019-06-01T20:10:16.305Z,100849.37
2019-06-01T20:12:49.412Z,100847.03
2019-06-01T20:15:22.489Z,100860.66
2019-06-01T20:17:55.784Z,100861.51
2019-06-01T20:20:28.976Z,100868.92
2019-06-01T20:23:02.194Z,100866.50
2019-06-01T20:25:35.384Z,100881.28
2019-06-01T20:28:08.677Z,100860.93
2019-06-01T20:30:41.961Z,100848.47
2019-06-01T20:33:15.999Z,100842.32
2019-06-01T20:35:49.185Z,100853.80
2019-06-01T20:38:23.404Z,100840.56
2019-06-01T20:40:56.572Z,100837.70
2019-06-01T20:43:29.772Z,100818.38
2019-06-01T20:46:03.184Z,100809.14
2019-06-01T20:48:36.481Z,100802.93
2019-06-01T20:51:09.672Z,100796.03
2019-06-01T20:53:42.969Z,100791.81
2019-06-01T20:56:17.286Z,100797.20
2019-06-01T20:58:50.567Z,100782.16
2019-06-01T21:01:24.005Z,100775.97
2019-06-01T21:03:57.282Z,100770.07
2019-06-01T21:06:30.692Z,100781.81
2019-06-01T21:09:05.492Z,100776.16
2019-06-01T21:11:39.298Z,100781.98
2019-06-01T21:14:13.789Z,100790.34
2019-06-01T21:16:46.812Z,100777.48
2019-06-01T21:19:20.446Z,100789.38
2019-06-01T21:21:53.728Z,100779.59
2019-06-01T21:24:27.026Z,100777.69
2019-06-01T21:27:00.421Z,100772.86
2019-06-01T21:29:33.509Z,100771.64
2019-06-01T21:32:06.909Z,100766.39
2019-06-01T21:34:40.186Z,100759.73
2019-06-01T21:37:13.381Z,100755.23
2019-06-01T21:39:46.490Z,100748.98
2019-06-01T21:42:19.888Z,100748.98
2019-06-01T21:44:52.861Z,100753.73
2019-06-01T21:47:26.277Z,100744.00
2019-06-01T21:49:59.469Z,100738.55
2019-06-01T21:52:32.643Z,100736.62
2019-06-01T21:55:07.800Z,100741.25
2019-06-01T21:57:40.791Z,100739.58
2019-06-01T22:00:18.747Z,100740.03
2019-06-01T22:02:53.404Z,100733.25
2019-06-01T22:05:27.320Z,100740.61
2019-06-01T22:08:01.428Z,100732.10
2019-06-01T22:10:34.738Z,100735.23
2019-06-01T22:13:18.241Z,100732.99
2019-06-01T22:15:43.071Z,100731.14
2019-06-01T22:18:17.588Z,100726.03
2019-06-01T22:20:50.773Z,100718.16
2019-06-01T22:23:24.085Z,100723.92
2019-06-01T22:25:57.363Z,100721.09
2019-06-01T22:28:30.480Z,100720.35
2019-06-01T22:31:03.748Z,100725.17
2019-06-01T22:33:37.166Z,100721.09
2019-06-01T22:36:10.237Z,100713.67
2019-06-01T22:38:43.653Z,100725.59
2019-06-01T22:41:16.953Z,100718.13
2019-06-01T22:43:50.142Z,100724.89
2019-06-01T22:46:24.420Z,100717.02
2019-06-01T22:48:57.641Z,100717.83
2019-06-01T22:51:30.849Z,100719.71
2019-06-01T22:54:04.259Z,100718.66
2019-06-01T22:56:37.442Z,100714.42
2019-06-01T22:59:10.740Z,100718.46
2019-06-01T23:01:43.811Z,100711.64
2019-06-01T23:04:17.125Z,100720.38
2019-06-01T23:06:50.318Z,100713.72
2019-06-01T23:09:23.628Z,100717.81
2019-06-01T23:11:56.792Z,100720.70
2019-06-01T23:14:31.449Z,100725.40
2019-06-01T23:17:04.425Z,100732.07
2019-06-01T23:19:37.501Z,100729.95
2019-06-01T23:22:10.813Z,100732.58
2019-06-01T23:24:44.107Z,100740.04
2019-06-01T23:27:17.290Z,100747.92
2019-06-01T23:29:50.595Z,100753.87
2019-06-01T23:32:24.532Z,100760.80
2019-06-01T23:34:57.707Z,100757.05
2019-06-01T23:37:30.940Z,100760.92
2019-06-01T23:40:05.158Z,100759.73
2019-06-01T23:42:38.084Z,100759.73
2019-06-01T23:45:11.381Z,100759.13
2019-06-01T23:47:44.592Z,100754.28
2019-06-01T23:50:17.765Z,100745.80
2019-06-01T23:52:51.899Z,100738.55
2019-06-01T23:55:25.466Z,100739.14
2019-06-01T23:57:58.600Z,100731.87
